Active alerts

Gallatin County, MT
  Details for Gallatin County, MT Winter Storm Warning
Gallatin County, MT
  Details for Gallatin County, MT Hydrologic Outlook

Thunder radar more information blitzortung!


Rain radar more information rain snow radar



Nearby METAR Reports

   
KNUQ - Mountain View, CA
Updated: Jul 4 2020 6:55 am
NOT Current
Clear  
Clear  
   Wind: Calm
Wind: Calm
Temperature: 59°F
Dew Point: 51.8°F
Humidity: 77%
Barometer: 30.03 inHg
Clouds: Clear
Visibility: 10 mi
Cloud details: Clear ft
KNUQ 041355Z AUTO 00000KT 10SM CLR 15/11 A3003 RMK AO2
KSFO - San Francisco, CA
Updated: Jul 4 2020 8:56 pm
Clear  
Clear  
   Wind: WNW 17.3 mph
Wind: WNW 17.3 mph
Temperature: 62.6°F
Dew Point: 46.4°F
Humidity: 56%
Barometer: 29.98 inHg
Clouds: Clear
Visibility: 10 mi
Cloud details: Clear ft
KSFO 050356Z 30015KT 10SM CLR 17/08 A2998 RMK AO2 SLP152 T01670083 $
KSJC - San Jose, CA
Updated: Jul 4 2020 8:53 pm
Few Clouds  
Few Clouds  
   Wind: NW 9.2 mph
Wind: NW 9.2 mph
Temperature: 71.6°F
Dew Point: 46.4°F
Humidity: 41%
Barometer: 29.99 inHg
Clouds: Few Clouds
Visibility: 10 mi
Cloud details: Few Clouds 500 ft
KSJC 050353Z 32008KT 10SM FEW005 22/08 A2999 RMK AO2 SLP153 FU FEW005 T02220083
KOAK - Oakland, CA
Updated: Jul 4 2020 8:53 pm
Clear  
Clear  
   Wind: West 16.1 mph
Wind: West 16.1 mph
Temperature: 66.2°F
Dew Point: 51.8°F
Humidity: 60%
Barometer: 29.99 inHg
Clouds: Clear
Visibility: 10 mi
Cloud details: Clear ft
KOAK 050353Z 28014KT 10SM CLR 19/11 A2999 RMK AO2 SLP156 T01940111
KMRY - Monterey, CA
Updated: Jul 4 2020 8:54 pm
Clear  
Clear  
   Wind: WSW 6.9 mph
Wind: WSW 6.9 mph
Temperature: 64.4°F
Dew Point: 50°F
Humidity: 60%
Barometer: 30.01 inHg
Clouds: Clear
Visibility: 10 mi
Cloud details: Clear ft
KMRY 050354Z AUTO 25006KT 10SM CLR 18/10 A3001 RMK AO2 SLP174 T01830100
KWYS - West Yellowstone, MT
Updated: Jul 4 2020 9:07 am
NOT Current
  
  
   Wind: Calm
Wind: Calm
Visibility: 5 mi
KWYS 041607Z 08005KTKT 10SMSM CLR 15/08 A3024
KDCA - Washington, DC
Updated: Jul 4 2020 8:52 pm
Haze, Partly Cloudy  
Haze, Partly Cloudy  
   Wind: South 4.6 mph
Wind: South 4.6 mph
Temperature: 80.6°F
Heat Index: 84.2°F
Dew Point: 71.6°F
Humidity: 74%
Barometer: 29.95 inHg
Clouds: Partly Cloudy
Visibility: 5 mi
Cloud details: Partly Cloudy 25000 ft
KDCA 050352Z AUTO 18004KT 5SM HZ SCT250 27/22 A2995 RMK AO2 SLP140 T02720217
KIAD - Washington Dulles, VA
Updated: Jul 4 2020 8:52 pm
Mostly Cloudy  
Mostly Cloudy  
   Wind: Calm
Wind: Calm
Temperature: 75.2°F
Dew Point: 66.2°F
Humidity: 74%
Barometer: 29.95 inHg
Clouds: Mostly Cloudy
Visibility: 8 mi
Cloud details: Mostly Cloudy 9000 ft
KIAD 050352Z 00000KT 8SM BKN090 24/19 A2995 RMK AO2 SLP139 T02440194
KMIA - Miami Beach, FL
Updated: Jul 4 2020 8:53 pm
Clear  
Clear  
   Wind: West 4.6 mph
Wind: West 4.6 mph
Temperature: 86°F
Heat Index: 93.2°F
Dew Point: 73.4°F
Humidity: 66%
Barometer: 29.96 inHg
Clouds: Clear
Visibility: 10 mi
Cloud details: Clear ft
KMIA 050353Z 26004KT 10SM CLR 30/23 A2996 RMK AO2 SLP146 T03000233 $

Script developed by  Saratoga-weather.org Adapted for the template by  Weerstation Leuven

You find our weather info also at:

Weather Underground

Citizen Weather Observer Program (CWOP)

Equipment we use:

Weather-station
Ambient WS-1400-IP

Weather-program
Meteobridge

Weather-server
TP-LINK TL-MR3020

Ambient WS-1400-IP

Meteobridge

TP-LINK TL-MR3020